Mekoryuk, AK

8:45 PM AKST on January 26, 2015 (GMT -0900)
Mekoryuk | Change Station
CLOSE
Current Station
Airport
Location: Mekoryuk,
Elevation: 49 ft
Nearby Weather Stations
Active Advisory: Wind Chill Advisory

Elev 49 ft 60.37 °N, 166.27 °W | Updated 9 minutes ago

Mostly Cloudy
Mostly Cloudy
-2 °F
Feels Like -26 °F
N
22
Wind Variable Wind from ENE

Today
High -- | Low -- °F
--% Chance of Precip.
Yesterday
High -- | Low -- °F
Precip. -- in
10:34 AM 6:01 PM
Waxing Crescent, 50% visible
Pressure 29.81 in
Visibility 10.0 miles
Clouds Mostly Cloudy 10000 ft
Windchill -26 °F
Dew Point -11 °F
Humidity 66%
Rainfall 0.00 in
Snow Depth Not available.
UV 0 out of 12
Pollen Not available.
Air Quality Not available.
Flu Activity Not available.
METAR PAMY 270536Z AUTO 06019KT 10SM BKN100 M19/M24 A2981 RMK AO1

More Conditions Fewer Conditions

Pressure 29.81 in
Visibility 10.0 miles
Clouds Mostly Cloudy 10000 ft
Windchill -26 °F
Dew Point -11 °F
Humidity 66%
Rainfall 0.00 in
Snow Depth Not available.
UV 0 out of 12
Pollen Not available.
Air Quality Not available.
Flu Activity Not available.
METAR PAMY 270536Z AUTO 06019KT 10SM BKN100 M19/M24 A2981 RMK AO1

More Conditions Fewer Conditions

10-Day Weather Forecast

Almanac

Astronomy

Jan. 26, 2015 Rise Set
Actual Time
Civil Twilight
Nautical Twilight
Astronomical Twilight
Moon
Length of Visible Light
Length of Day
Tomorrow will be .
, % of the Moon is Illuminated

Today's Extremes

State Highs State Lows

Community

WunderPhotos

Upload Photos

1,790,536 photos uploaded!

WunderBlogs® & News

Nearby

Air Quality

  Air Quality AQ Index Pollutant
Not available.

Snow Depth

Station Depth Elevation

Earthquake Activity

City Distance Mag. Time & Date
Minimum magnitude displayed is 2.5.

Coastal Water Temperatures

Place Temperature

Nearby Weather Stations